Terminal Aerodrome Forecast
Issued by NWS Buffalo, NY

Home | Current Version | Previous Version | Text Only | Print | Product List | Glossary On
Versions: 1 2 3 4 5 6 7 8 9 10 11 12 13 14 15 16 17 18 19 20 21 22 23 24
000
FTUS41 KBUF 270300 AAA
TAFBUF
TAF AMD
KBUF 270320Z 2703/2724 03007KT P6SM -SN OVC040
      TEMPO 2703/2706 5SM -SN BKN035
     FM270600 31005KT P6SM VCSH OVC035
     FM270800 29004KT P6SM BKN025
     FM271300 25007KT P6SM SCT025=

USA.gov is the U.S. government's official web portal to all federal, state and local government web resources and services.